Terminal Aerodrome Forecast
Issued by NWS North Platte, NE

Home | Current Version | Previous Version | Graphics & Text | Print | Product List | Glossary On
Versions: 1 2 3 4 5 6 7 8 9 10 11 12 13 14 15
807
FTUS43 KLBF 250520
TAFVTN
TAF
KVTN 250520Z 2506/2606 17016G22KT P6SM FEW250 WS010/19055KT
     FM251100 23009KT P6SM SCT250
     FM251500 32012KT P6SM BKN250
     FM251800 35010KT P6SM BKN100 BKN250=

USA.gov is the U.S. government's official web portal to all federal, state and local government web resources and services.